sensor_id;sensor_type;location;lat;lon;timestamp;P1;durP1;ratioP1;P2;durP2;ratioP2
41984;SDS011;28319;48.116;10.818;2023-06-22T00:01:48;3.08;;;2.55;;
41984;SDS011;28319;48.116;10.818;2023-06-22T00:06:50;5.15;;;2.88;;
41984;SDS011;28319;48.116;10.818;2023-06-22T00:11:52;9.30;;;3.30;;
41984;SDS011;28319;48.116;10.818;2023-06-22T00:16:56;5.78;;;3.13;;
41984;SDS011;28319;48.116;10.818;2023-06-22T00:21:59;5.22;;;2.60;;
41984;SDS011;28319;48.116;10.818;2023-06-22T00:27:03;3.85;;;2.85;;
41984;SDS011;28319;48.116;10.818;2023-06-22T00:32:08;3.88;;;2.63;;
41984;SDS011;28319;48.116;10.818;2023-06-22T00:37:10;4.55;;;2.85;;
41984;SDS011;28319;48.116;10.818;2023-06-22T00:42:12;3.35;;;2.72;;
41984;SDS011;28319;48.116;10.818;2023-06-22T00:47:16;5.55;;;2.67;;
41984;SDS011;28319;48.116;10.818;2023-06-22T00:52:19;3.22;;;2.92;;
41984;SDS011;28319;48.116;10.818;2023-06-22T00:57:27;4.78;;;2.53;;
41984;SDS011;28319;48.116;10.818;2023-06-22T01:02:31;5.13;;;2.60;;
41984;SDS011;28319;48.116;10.818;2023-06-22T01:07:34;4.70;;;2.88;;
41984;SDS011;28319;48.116;10.818;2023-06-22T01:12:42;2.70;;;2.50;;
41984;SDS011;28319;48.116;10.818;2023-06-22T01:17:48;4.40;;;2.60;;
41984;SDS011;28319;48.116;10.818;2023-06-22T01:22:58;5.82;;;3.20;;
41984;SDS011;28319;48.116;10.818;2023-06-22T01:28:12;5.47;;;3.10;;
41984;SDS011;28319;48.116;10.818;2023-06-22T01:33:25;7.57;;;3.47;;
41984;SDS011;28319;48.116;10.818;2023-06-22T01:38:28;7.00;;;3.60;;
41984;SDS011;28319;48.116;10.818;2023-06-22T01:43:31;3.42;;;2.83;;
41984;SDS011;28319;48.116;10.818;2023-06-22T01:48:35;4.55;;;3.20;;
41984;SDS011;28319;48.116;10.818;2023-06-22T01:53:37;3.58;;;2.80;;
41984;SDS011;28319;48.116;10.818;2023-06-22T01:58:41;7.13;;;3.67;;
41984;SDS011;28319;48.116;10.818;2023-06-22T02:03:52;6.30;;;3.58;;
41984;SDS011;28319;48.116;10.818;2023-06-22T02:08:59;5.30;;;3.53;;
41984;SDS011;28319;48.116;10.818;2023-06-22T02:14:04;6.38;;;3.67;;
41984;SDS011;28319;48.116;10.818;2023-06-22T02:19:09;7.07;;;3.78;;
41984;SDS011;28319;48.116;10.818;2023-06-22T02:24:12;4.30;;;2.60;;
41984;SDS011;28319;48.116;10.818;2023-06-22T02:29:14;4.68;;;2.80;;
41984;SDS011;28319;48.116;10.818;2023-06-22T02:34:17;2.83;;;2.53;;
41984;SDS011;28319;48.116;10.818;2023-06-22T02:39:19;7.68;;;3.30;;
41984;SDS011;28319;48.116;10.818;2023-06-22T02:44:22;4.70;;;2.80;;
41984;SDS011;28319;48.116;10.818;2023-06-22T02:49:26;6.43;;;3.80;;
41984;SDS011;28319;48.116;10.818;2023-06-22T02:54:28;8.55;;;3.63;;
41984;SDS011;28319;48.116;10.818;2023-06-22T02:59:30;8.65;;;3.80;;
41984;SDS011;28319;48.116;10.818;2023-06-22T03:04:33;9.52;;;3.90;;
41984;SDS011;28319;48.116;10.818;2023-06-22T03:09:35;6.70;;;3.70;;
41984;SDS011;28319;48.116;10.818;2023-06-22T03:14:37;5.65;;;3.58;;
41984;SDS011;28319;48.116;10.818;2023-06-22T03:19:41;5.82;;;4.10;;
41984;SDS011;28319;48.116;10.818;2023-06-22T03:24:43;4.40;;;3.60;;
41984;SDS011;28319;48.116;10.818;2023-06-22T03:29:45;7.88;;;3.90;;
41984;SDS011;28319;48.116;10.818;2023-06-22T03:34:49;4.20;;;3.60;;
41984;SDS011;28319;48.116;10.818;2023-06-22T03:39:51;7.22;;;4.03;;
41984;SDS011;28319;48.116;10.818;2023-06-22T03:44:53;4.07;;;2.97;;
41984;SDS011;28319;48.116;10.818;2023-06-22T03:49:56;5.43;;;3.42;;
41984;SDS011;28319;48.116;10.818;2023-06-22T03:54:58;3.83;;;2.70;;
41984;SDS011;28319;48.116;10.818;2023-06-22T04:00:00;3.75;;;3.22;;
41984;SDS011;28319;48.116;10.818;2023-06-22T04:05:08;6.38;;;4.10;;
41984;SDS011;28319;48.116;10.818;2023-06-22T04:10:10;4.50;;;2.70;;
41984;SDS011;28319;48.116;10.818;2023-06-22T04:15:12;3.33;;;3.03;;
41984;SDS011;28319;48.116;10.818;2023-06-22T04:20:16;8.35;;;3.85;;
41984;SDS011;28319;48.116;10.818;2023-06-22T04:25:18;4.30;;;3.00;;
41984;SDS011;28319;48.116;10.818;2023-06-22T04:30:20;3.97;;;3.20;;
41984;SDS011;28319;48.116;10.818;2023-06-22T04:35:23;3.90;;;3.03;;
41984;SDS011;28319;48.116;10.818;2023-06-22T04:40:25;5.82;;;3.58;;
41984;SDS011;28319;48.116;10.818;2023-06-22T04:45:28;8.20;;;3.97;;
41984;SDS011;28319;48.116;10.818;2023-06-22T04:50:31;5.95;;;4.25;;
41984;SDS011;28319;48.116;10.818;2023-06-22T04:55:33;6.53;;;3.35;;
41984;SDS011;28319;48.116;10.818;2023-06-22T05:00:37;5.43;;;4.18;;
41984;SDS011;28319;48.116;10.818;2023-06-22T05:05:41;8.65;;;4.50;;
41984;SDS011;28319;48.116;10.818;2023-06-22T05:10:44;5.75;;;4.25;;
41984;SDS011;28319;48.116;10.818;2023-06-22T05:15:46;5.60;;;3.88;;
41984;SDS011;28319;48.116;10.818;2023-06-22T05:20:49;6.60;;;4.50;;
41984;SDS011;28319;48.116;10.818;2023-06-22T05:25:51;6.05;;;4.70;;
41984;SDS011;28319;48.116;10.818;2023-06-22T05:30:55;7.63;;;3.92;;
41984;SDS011;28319;48.116;10.818;2023-06-22T05:35:58;7.10;;;4.47;;
41984;SDS011;28319;48.116;10.818;2023-06-22T05:41:00;5.90;;;4.40;;
41984;SDS011;28319;48.116;10.818;2023-06-22T05:46:03;6.20;;;4.50;;
41984;SDS011;28319;48.116;10.818;2023-06-22T05:51:07;8.45;;;4.65;;
41984;SDS011;28319;48.116;10.818;2023-06-22T05:56:08;4.57;;;4.03;;
41984;SDS011;28319;48.116;10.818;2023-06-22T06:01:10;10.98;;;4.80;;
41984;SDS011;28319;48.116;10.818;2023-06-22T06:06:14;7.35;;;4.25;;
41984;SDS011;28319;48.116;10.818;2023-06-22T06:11:16;7.47;;;4.82;;
41984;SDS011;28319;48.116;10.818;2023-06-22T06:16:18;4.25;;;3.00;;
41984;SDS011;28319;48.116;10.818;2023-06-22T06:21:22;6.68;;;4.47;;
41984;SDS011;28319;48.116;10.818;2023-06-22T06:26:24;7.43;;;4.50;;
41984;SDS011;28319;48.116;10.818;2023-06-22T06:31:29;9.57;;;5.20;;
41984;SDS011;28319;48.116;10.818;2023-06-22T06:36:33;8.40;;;4.80;;
41984;SDS011;28319;48.116;10.818;2023-06-22T06:41:35;12.70;;;5.20;;
41984;SDS011;28319;48.116;10.818;2023-06-22T06:46:37;5.43;;;4.78;;
41984;SDS011;28319;48.116;10.818;2023-06-22T06:51:40;7.03;;;4.50;;
41984;SDS011;28319;48.116;10.818;2023-06-22T06:56:42;8.38;;;5.43;;
41984;SDS011;28319;48.116;10.818;2023-06-22T07:01:48;7.75;;;4.93;;
41984;SDS011;28319;48.116;10.818;2023-06-22T07:06:51;11.45;;;4.97;;
41984;SDS011;28319;48.116;10.818;2023-06-22T07:11:53;6.07;;;4.70;;
41984;SDS011;28319;48.116;10.818;2023-06-22T07:16:55;9.02;;;5.10;;
41984;SDS011;28319;48.116;10.818;2023-06-22T07:21:59;7.03;;;3.75;;
41984;SDS011;28319;48.116;10.818;2023-06-22T07:27:01;8.80;;;4.65;;
41984;SDS011;28319;48.116;10.818;2023-06-22T07:32:04;8.23;;;4.47;;
41984;SDS011;28319;48.116;10.818;2023-06-22T07:37:08;9.77;;;5.03;;
41984;SDS011;28319;48.116;10.818;2023-06-22T07:42:10;12.98;;;5.00;;
41984;SDS011;28319;48.116;10.818;2023-06-22T07:47:12;6.18;;;4.53;;
41984;SDS011;28319;48.116;10.818;2023-06-22T07:52:15;13.18;;;4.80;;
41984;SDS011;28319;48.116;10.818;2023-06-22T07:57:17;12.82;;;5.55;;
41984;SDS011;28319;48.116;10.818;2023-06-22T08:02:19;7.18;;;4.57;;
41984;SDS011;28319;48.116;10.818;2023-06-22T08:07:23;11.57;;;4.93;;
41984;SDS011;28319;48.116;10.818;2023-06-22T08:12:25;8.75;;;5.20;;
41984;SDS011;28319;48.116;10.818;2023-06-22T08:17:27;9.25;;;5.07;;
41984;SDS011;28319;48.116;10.818;2023-06-22T08:22:32;10.27;;;5.47;;
41984;SDS011;28319;48.116;10.818;2023-06-22T08:27:36;9.90;;;4.90;;
41984;SDS011;28319;48.116;10.818;2023-06-22T08:32:38;7.15;;;4.57;;
41984;SDS011;28319;48.116;10.818;2023-06-22T08:37:42;9.63;;;5.38;;
41984;SDS011;28319;48.116;10.818;2023-06-22T08:42:50;12.68;;;5.45;;
41984;SDS011;28319;48.116;10.818;2023-06-22T08:47:52;9.80;;;4.90;;
41984;SDS011;28319;48.116;10.818;2023-06-22T08:52:56;8.73;;;5.25;;
41984;SDS011;28319;48.116;10.818;2023-06-22T08:57:58;13.82;;;5.35;;
41984;SDS011;28319;48.116;10.818;2023-06-22T09:03:00;12.95;;;4.85;;
41984;SDS011;28319;48.116;10.818;2023-06-22T09:08:04;12.60;;;4.88;;
41984;SDS011;28319;48.116;10.818;2023-06-22T09:13:06;14.15;;;5.32;;
41984;SDS011;28319;48.116;10.818;2023-06-22T09:18:09;9.10;;;4.72;;
41984;SDS011;28319;48.116;10.818;2023-06-22T09:23:13;8.13;;;5.22;;
41984;SDS011;28319;48.116;10.818;2023-06-22T09:28:15;11.10;;;5.18;;
41984;SDS011;28319;48.116;10.818;2023-06-22T09:33:19;11.30;;;5.75;;
41984;SDS011;28319;48.116;10.818;2023-06-22T09:38:22;11.57;;;6.13;;
41984;SDS011;28319;48.116;10.818;2023-06-22T09:43:24;9.02;;;5.00;;
41984;SDS011;28319;48.116;10.818;2023-06-22T09:48:26;10.07;;;5.25;;
41984;SDS011;28319;48.116;10.818;2023-06-22T09:53:30;7.97;;;4.97;;
41984;SDS011;28319;48.116;10.818;2023-06-22T09:58:32;10.10;;;5.00;;
41984;SDS011;28319;48.116;10.818;2023-06-22T10:03:34;13.32;;;5.20;;
41984;SDS011;28319;48.116;10.818;2023-06-22T10:08:37;13.10;;;4.68;;
41984;SDS011;28319;48.116;10.818;2023-06-22T10:13:40;14.68;;;5.63;;
41984;SDS011;28319;48.116;10.818;2023-06-22T10:18:42;11.77;;;5.38;;
41984;SDS011;28319;48.116;10.818;2023-06-22T10:23:46;12.13;;;5.60;;
41984;SDS011;28319;48.116;10.818;2023-06-22T10:28:48;9.70;;;5.60;;
41984;SDS011;28319;48.116;10.818;2023-06-22T10:33:50;13.30;;;5.65;;
41984;SDS011;28319;48.116;10.818;2023-06-22T10:38:53;13.98;;;5.10;;
41984;SDS011;28319;48.116;10.818;2023-06-22T10:43:55;13.52;;;5.30;;
41984;SDS011;28319;48.116;10.818;2023-06-22T10:48:58;11.68;;;5.75;;
41984;SDS011;28319;48.116;10.818;2023-06-22T10:54:01;10.98;;;6.07;;
41984;SDS011;28319;48.116;10.818;2023-06-22T10:59:04;12.02;;;5.75;;
41984;SDS011;28319;48.116;10.818;2023-06-22T11:04:06;9.38;;;5.35;;
41984;SDS011;28319;48.116;10.818;2023-06-22T11:09:09;9.70;;;5.15;;
41984;SDS011;28319;48.116;10.818;2023-06-22T11:14:11;7.97;;;5.63;;
41984;SDS011;28319;48.116;10.818;2023-06-22T11:19:13;11.23;;;5.80;;
41984;SDS011;28319;48.116;10.818;2023-06-22T11:24:17;12.27;;;4.95;;
41984;SDS011;28319;48.116;10.818;2023-06-22T11:29:19;9.40;;;5.40;;
41984;SDS011;28319;48.116;10.818;2023-06-22T11:34:21;9.85;;;4.85;;
41984;SDS011;28319;48.116;10.818;2023-06-22T11:39:25;14.15;;;5.40;;
41984;SDS011;28319;48.116;10.818;2023-06-22T11:44:27;11.27;;;5.47;;
41984;SDS011;28319;48.116;10.818;2023-06-22T11:49:29;13.48;;;5.90;;
41984;SDS011;28319;48.116;10.818;2023-06-22T11:54:33;11.52;;;5.60;;
41984;SDS011;28319;48.116;10.818;2023-06-22T11:59:35;13.15;;;5.47;;
41984;SDS011;28319;48.116;10.818;2023-06-22T12:04:37;13.93;;;5.78;;
41984;SDS011;28319;48.116;10.818;2023-06-22T12:09:41;12.15;;;5.50;;
41984;SDS011;28319;48.116;10.818;2023-06-22T12:14:44;10.52;;;5.35;;
41984;SDS011;28319;48.116;10.818;2023-06-22T12:19:46;12.30;;;5.78;;
41984;SDS011;28319;48.116;10.818;2023-06-22T12:24:51;9.57;;;5.07;;
41984;SDS011;28319;48.116;10.818;2023-06-22T12:29:53;10.13;;;5.47;;
41984;SDS011;28319;48.116;10.818;2023-06-22T12:34:55;8.88;;;4.93;;
41984;SDS011;28319;48.116;10.818;2023-06-22T12:39:59;10.45;;;5.25;;
41984;SDS011;28319;48.116;10.818;2023-06-22T12:45:04;13.27;;;5.47;;
41984;SDS011;28319;48.116;10.818;2023-06-22T12:50:07;8.77;;;4.65;;
41984;SDS011;28319;48.116;10.818;2023-06-22T12:55:11;7.03;;;4.55;;
41984;SDS011;28319;48.116;10.818;2023-06-22T13:00:13;10.48;;;4.90;;
41984;SDS011;28319;48.116;10.818;2023-06-22T13:05:16;10.35;;;4.40;;
41984;SDS011;28319;48.116;10.818;2023-06-22T13:10:19;12.80;;;4.95;;
41984;SDS011;28319;48.116;10.818;2023-06-22T13:15:21;13.32;;;4.32;;
41984;SDS011;28319;48.116;10.818;2023-06-22T13:20:23;13.70;;;4.25;;
41984;SDS011;28319;48.116;10.818;2023-06-22T13:25:27;9.63;;;4.47;;
41984;SDS011;28319;48.116;10.818;2023-06-22T13:30:29;7.00;;;4.30;;
41984;SDS011;28319;48.116;10.818;2023-06-22T13:35:32;10.98;;;4.43;;
41984;SDS011;28319;48.116;10.818;2023-06-22T13:40:36;11.82;;;4.10;;
41984;SDS011;28319;48.116;10.818;2023-06-22T13:45:39;9.60;;;4.30;;
41984;SDS011;28319;48.116;10.818;2023-06-22T13:50:43;12.82;;;4.82;;
41984;SDS011;28319;48.116;10.818;2023-06-22T13:55:46;7.57;;;4.07;;
41984;SDS011;28319;48.116;10.818;2023-06-22T14:00:49;11.88;;;4.53;;
41984;SDS011;28319;48.116;10.818;2023-06-22T14:05:51;14.35;;;4.78;;
41984;SDS011;28319;48.116;10.818;2023-06-22T14:10:58;13.85;;;5.03;;
41984;SDS011;28319;48.116;10.818;2023-06-22T14:16:00;15.18;;;5.32;;
41984;SDS011;28319;48.116;10.818;2023-06-22T14:21:02;9.55;;;4.53;;
41984;SDS011;28319;48.116;10.818;2023-06-22T14:26:05;10.68;;;3.95;;
41984;SDS011;28319;48.116;10.818;2023-06-22T14:31:08;11.13;;;3.83;;
41984;SDS011;28319;48.116;10.818;2023-06-22T14:36:10;9.38;;;4.32;;
41984;SDS011;28319;48.116;10.818;2023-06-22T14:41:13;10.68;;;4.30;;
41984;SDS011;28319;48.116;10.818;2023-06-22T14:46:18;7.35;;;3.67;;
41984;SDS011;28319;48.116;10.818;2023-06-22T14:51:20;10.52;;;4.20;;
41984;SDS011;28319;48.116;10.818;2023-06-22T14:56:23;12.10;;;5.10;;
41984;SDS011;28319;48.116;10.818;2023-06-22T15:01:25;15.65;;;4.22;;
41984;SDS011;28319;48.116;10.818;2023-06-22T15:06:27;9.70;;;4.10;;
41984;SDS011;28319;48.116;10.818;2023-06-22T15:11:31;16.33;;;4.03;;
41984;SDS011;28319;48.116;10.818;2023-06-22T15:16:33;16.40;;;4.95;;
41984;SDS011;28319;48.116;10.818;2023-06-22T15:21:35;10.70;;;4.15;;
41984;SDS011;28319;48.116;10.818;2023-06-22T15:26:39;7.22;;;3.70;;
41984;SDS011;28319;48.116;10.818;2023-06-22T15:31:41;14.30;;;4.45;;
41984;SDS011;28319;48.116;10.818;2023-06-22T15:36:43;9.38;;;3.97;;
41984;SDS011;28319;48.116;10.818;2023-06-22T15:41:47;11.95;;;4.68;;
41984;SDS011;28319;48.116;10.818;2023-06-22T15:46:49;13.82;;;4.43;;
41984;SDS011;28319;48.116;10.818;2023-06-22T15:51:51;8.20;;;4.45;;
41984;SDS011;28319;48.116;10.818;2023-06-22T15:56:55;18.88;;;4.63;;
41984;SDS011;28319;48.116;10.818;2023-06-22T16:01:57;10.88;;;4.35;;
41984;SDS011;28319;48.116;10.818;2023-06-22T16:06:59;8.95;;;4.45;;
41984;SDS011;28319;48.116;10.818;2023-06-22T16:12:03;15.68;;;4.38;;
41984;SDS011;28319;48.116;10.818;2023-06-22T16:17:06;10.98;;;4.40;;
41984;SDS011;28319;48.116;10.818;2023-06-22T16:22:08;11.50;;;5.32;;
41984;SDS011;28319;48.116;10.818;2023-06-22T16:27:11;9.98;;;5.30;;
41984;SDS011;28319;48.116;10.818;2023-06-22T16:32:13;7.10;;;4.65;;
41984;SDS011;28319;48.116;10.818;2023-06-22T16:37:15;10.05;;;4.18;;
41984;SDS011;28319;48.116;10.818;2023-06-22T16:42:20;12.48;;;5.28;;
41984;SDS011;28319;48.116;10.818;2023-06-22T16:47:21;8.73;;;4.95;;
41984;SDS011;28319;48.116;10.818;2023-06-22T16:52:23;9.73;;;4.75;;
41984;SDS011;28319;48.116;10.818;2023-06-22T16:57:27;8.70;;;4.65;;
41984;SDS011;28319;48.116;10.818;2023-06-22T17:02:29;7.63;;;4.35;;
41984;SDS011;28319;48.116;10.818;2023-06-22T17:07:34;13.02;;;4.80;;
41984;SDS011;28319;48.116;10.818;2023-06-22T17:12:44;6.47;;;4.25;;
41984;SDS011;28319;48.116;10.818;2023-06-22T17:17:46;7.78;;;4.82;;
41984;SDS011;28319;48.116;10.818;2023-06-22T17:22:49;9.82;;;4.30;;
41984;SDS011;28319;48.116;10.818;2023-06-22T17:27:53;15.38;;;4.43;;
41984;SDS011;28319;48.116;10.818;2023-06-22T17:33:01;8.20;;;3.78;;
41984;SDS011;28319;48.116;10.818;2023-06-22T17:38:03;8.25;;;3.33;;
41984;SDS011;28319;48.116;10.818;2023-06-22T17:43:07;5.32;;;4.22;;
41984;SDS011;28319;48.116;10.818;2023-06-22T17:48:10;7.68;;;4.13;;
41984;SDS011;28319;48.116;10.818;2023-06-22T17:53:12;6.18;;;3.47;;
41984;SDS011;28319;48.116;10.818;2023-06-22T17:58:16;8.75;;;4.00;;
41984;SDS011;28319;48.116;10.818;2023-06-22T18:03:22;11.65;;;4.30;;
41984;SDS011;28319;48.116;10.818;2023-06-22T18:08:26;7.07;;;4.53;;
41984;SDS011;28319;48.116;10.818;2023-06-22T18:13:31;10.32;;;4.25;;
41984;SDS011;28319;48.116;10.818;2023-06-22T18:18:34;13.13;;;4.95;;
41984;SDS011;28319;48.116;10.818;2023-06-22T18:23:38;13.40;;;5.13;;
41984;SDS011;28319;48.116;10.818;2023-06-22T18:28:41;8.70;;;4.68;;
41984;SDS011;28319;48.116;10.818;2023-06-22T18:33:45;8.68;;;4.63;;
41984;SDS011;28319;48.116;10.818;2023-06-22T18:38:47;10.15;;;4.45;;
41984;SDS011;28319;48.116;10.818;2023-06-22T18:43:53;10.52;;;4.55;;
41984;SDS011;28319;48.116;10.818;2023-06-22T18:48:58;5.55;;;4.18;;
41984;SDS011;28319;48.116;10.818;2023-06-22T18:54:18;8.75;;;4.50;;
41984;SDS011;28319;48.116;10.818;2023-06-22T19:05:16;9.77;;;4.30;;
41984;SDS011;28319;48.116;10.818;2023-06-22T19:10:20;8.60;;;4.45;;
41984;SDS011;28319;48.116;10.818;2023-06-22T19:15:30;6.18;;;3.63;;
41984;SDS011;28319;48.116;10.818;2023-06-22T19:20:34;10.05;;;3.60;;
41984;SDS011;28319;48.116;10.818;2023-06-22T19:25:36;18.60;;;3.70;;
41984;SDS011;28319;48.116;10.818;2023-06-22T19:30:39;10.90;;;3.70;;
41984;SDS011;28319;48.116;10.818;2023-06-22T19:35:43;8.20;;;3.08;;
41984;SDS011;28319;48.116;10.818;2023-06-22T19:40:45;6.45;;;2.97;;
41984;SDS011;28319;48.116;10.818;2023-06-22T19:45:48;10.57;;;3.53;;
41984;SDS011;28319;48.116;10.818;2023-06-22T19:50:50;9.15;;;3.05;;
41984;SDS011;28319;48.116;10.818;2023-06-22T19:55:55;7.53;;;3.03;;
41984;SDS011;28319;48.116;10.818;2023-06-22T20:01:00;7.90;;;2.97;;
41984;SDS011;28319;48.116;10.818;2023-06-22T20:06:08;10.05;;;2.95;;
41984;SDS011;28319;48.116;10.818;2023-06-22T20:11:10;7.65;;;2.90;;
41984;SDS011;28319;48.116;10.818;2023-06-22T20:16:14;6.20;;;2.92;;
41984;SDS011;28319;48.116;10.818;2023-06-22T20:21:17;6.28;;;2.90;;
41984;SDS011;28319;48.116;10.818;2023-06-22T20:26:19;5.40;;;3.05;;
41984;SDS011;28319;48.116;10.818;2023-06-22T20:31:23;7.13;;;3.10;;
41984;SDS011;28319;48.116;10.818;2023-06-22T20:36:28;5.80;;;3.38;;
41984;SDS011;28319;48.116;10.818;2023-06-22T20:41:32;6.50;;;3.40;;
41984;SDS011;28319;48.116;10.818;2023-06-22T20:46:35;7.43;;;3.83;;
41984;SDS011;28319;48.116;10.818;2023-06-22T20:51:37;5.40;;;3.35;;
41984;SDS011;28319;48.116;10.818;2023-06-22T20:56:39;7.55;;;3.25;;
41984;SDS011;28319;48.116;10.818;2023-06-22T21:01:43;4.80;;;3.00;;
41984;SDS011;28319;48.116;10.818;2023-06-22T21:06:46;4.50;;;3.00;;
41984;SDS011;28319;48.116;10.818;2023-06-22T21:11:48;6.47;;;2.90;;
41984;SDS011;28319;48.116;10.818;2023-06-22T21:16:52;3.88;;;2.53;;
41984;SDS011;28319;48.116;10.818;2023-06-22T21:21:55;3.13;;;2.40;;
41984;SDS011;28319;48.116;10.818;2023-06-22T21:26:57;6.63;;;2.88;;
41984;SDS011;28319;48.116;10.818;2023-06-22T21:32:01;3.78;;;2.40;;
41984;SDS011;28319;48.116;10.818;2023-06-22T21:37:03;5.40;;;2.33;;
41984;SDS011;28319;48.116;10.818;2023-06-22T21:42:05;2.40;;;2.20;;
41984;SDS011;28319;48.116;10.818;2023-06-22T21:47:09;2.25;;;2.03;;
41984;SDS011;28319;48.116;10.818;2023-06-22T21:52:11;2.70;;;2.00;;
41984;SDS011;28319;48.116;10.818;2023-06-22T21:57:15;5.03;;;1.85;;
41984;SDS011;28319;48.116;10.818;2023-06-22T22:02:18;2.80;;;2.10;;
41984;SDS011;28319;48.116;10.818;2023-06-22T22:07:20;2.58;;;1.67;;
41984;SDS011;28319;48.116;10.818;2023-06-22T22:12:22;3.78;;;1.90;;
41984;SDS011;28319;48.116;10.818;2023-06-22T22:17:25;3.33;;;1.60;;
41984;SDS011;28319;48.116;10.818;2023-06-22T22:22:27;2.50;;;1.80;;
41984;SDS011;28319;48.116;10.818;2023-06-22T22:27:30;2.22;;;1.90;;
41984;SDS011;28319;48.116;10.818;2023-06-22T22:32:34;1.77;;;1.65;;
41984;SDS011;28319;48.116;10.818;2023-06-22T22:37:36;1.77;;;1.65;;
41984;SDS011;28319;48.116;10.818;2023-06-22T22:42:38;2.30;;;1.58;;
41984;SDS011;28319;48.116;10.818;2023-06-22T22:47:42;1.75;;;1.65;;
41984;SDS011;28319;48.116;10.818;2023-06-22T22:52:44;3.95;;;1.30;;
41984;SDS011;28319;48.116;10.818;2023-06-22T22:57:46;1.48;;;1.38;;
41984;SDS011;28319;48.116;10.818;2023-06-22T23:02:50;2.00;;;1.40;;
41984;SDS011;28319;48.116;10.818;2023-06-22T23:07:52;1.98;;;1.42;;
41984;SDS011;28319;48.116;10.818;2023-06-22T23:12:54;2.47;;;1.42;;
41984;SDS011;28319;48.116;10.818;2023-06-22T23:17:58;3.30;;;1.42;;
41984;SDS011;28319;48.116;10.818;2023-06-22T23:23:00;1.73;;;1.60;;
41984;SDS011;28319;48.116;10.818;2023-06-22T23:28:03;1.85;;;1.58;;
41984;SDS011;28319;48.116;10.818;2023-06-22T23:33:07;1.92;;;1.30;;
41984;SDS011;28319;48.116;10.818;2023-06-22T23:38:10;1.50;;;1.20;;
41984;SDS011;28319;48.116;10.818;2023-06-22T23:43:12;1.35;;;1.23;;
41984;SDS011;28319;48.116;10.818;2023-06-22T23:48:15;4.03;;;1.70;;
41984;SDS011;28319;48.116;10.818;2023-06-22T23:53:17;1.70;;;1.60;;
41984;SDS011;28319;48.116;10.818;2023-06-22T23:58:20;1.80;;;1.50;;
